Weather observations for the past three days for
Maxwell Air Force Base / Montgomery
Imperial (Metric)
Date Time (cdt) Wind (mph) Vis. (mi.) Weather Sky Cond. Temperature (ºF) Relative Humidity Wind Chill (°F) Heat Index (°F) Pressure Precipitation (in)
Air Dwpt 6 hour altimeter (in) sea level (mb) 1 hr 3 hr 6 hr
Max. Min.
01 20:55 Calm 10.00 Fair CLR 83.8 69.8 63% 88 30 1015.9
01 19:55 NE 3 10.00 Fair CLR 89.8 65.5 45% 92 29.97 1014.9
01 18:55 NE 5 10.00 Fair CLR 94.5 64.8 100.2 94.5 38% 97 29.97 1014.9
01 17:55 NE 6 10.00 A Few Clouds FEW095 97.7 63.7 33% 100 29.97 1014.9
01 16:55 NE 7 10.00 Fair CLR 100 63 30% 102 29.96 1014.6
01 15:55 NE 7 10.00 Fair CLR 99 64.8 33% 102 29.97 1014.9
01 14:55 E 3 10.00 Fair CLR 99.5 66 34% 104 29.99 1015.6
01 13:55 NE 6 10.00 Partly Cloudy SCT060 SCT090 96.1 67.1 39% 100 30.02 1016.6
01 12:55 E 3 10.00 Fair CLR 95.2 68.4 97.3 76.3 42% 100 30.04 1017.3
01 11:55 E 5 10.00 Partly Cloudy SCT048 95.9 68.4 41% 101 30.06 1018.0
01 10:55 N 3 10.00 Fair CLR 93.4 70 47% 99 30.07 1018.3
01 09:55 N 6 10.00 Fair CLR 90 72.7 57% 98 30.08 1018.6
01 08:55 N 3 10.00 Fair CLR 85.5 73.6 68% 93 30.08 1018.6
01 07:55 Calm 10.00 Fair CLR 80.4 73.6 80% 85 30.08 1018.6
01 06:55 Calm 10.00 Fair CLR 76.1 73.2 79 75 91% 76 30.07 1018.3
01 05:55 Calm 10.00 Fair CLR 75.2 72.3 91% 74 30.04 1017.3
01 04:55 Calm 10.00 Fair CLR 76.6 73.4 90% 77 30.03 1016.9
01 02:55 N 5 10.00 Mostly Cloudy BKN050 77.5 74.7 91% 79 30.02 1016.6
01 01:55 Calm 10.00 Fair CLR 77.4 74.1 90% 79 30.02 1016.6
01 00:55 Calm 10.00 Fair CLR 78.3 74.3 92.5 78.3 88% 81 30.02 1016.6
31 23:55 Calm 10.00 Fair CLR 79.2 73.8 84% 83 30.03 1016.9
31 22:55 Calm 10.00 Fair CLR 81.7 72.9 75% 87 30.03 1016.9
31 21:55 Calm 10.00 A Few Clouds FEW060 83.5 72.1 69% 89 30.03 1016.9
31 20:55 NE 3 10.00 Fair CLR 84.6 70.9 64% 90 30.02 1016.6
31 19:55 NE 3 10.00 Fair CLR 90.1 68.9 50% 95 29.99 1015.6
31 17:55 E 6 10.00 Fair CLR 96.1 67.1 39% 100 29.99 1015.6
31 16:55 NE 7 10.00 Partly Cloudy FEW060 SCT100 95.4 67.1 40% 99 29.99 1015.6
31 15:55 NE 5 10.00 Mostly Cloudy FEW060 BKN085 95.4 67.8 41% 100 30.01 1016.3
31 14:55 E 6 10.00 Fair CLR 97.5 66.7 37% 102 30.02 1016.6
31 13:55 E 7 10.00 Fair CLR 96.4 67.3 39% 101 30.04 1017.3
31 12:55 E 7 10.00 Fair CLR 94.8 67.3 95 76.1 41% 99 30.06 1018.0
31 11:55 E 3 10.00 Fair CLR 92.5 68 45% 97 30.08 1018.6
31 10:55 SE 7 10.00 Fair CLR 90.9 69.6 50% 96 30.1 1019.3
31 09:55 Calm 10.00 Fair CLR 87.3 70.5 58% 93 30.1 1019.3
31 08:55 NE 5 10.00 Fair CLR 83.8 72.5 69% 90 30.09 1019.0
31 07:55 NE 6 10.00 Fair CLR 80.1 72.9 79% 84 30.09 1019.0
31 06:55 Calm 10.00 Fair CLR 76.1 72.5 77.5 75.2 89% 76 30.08 1018.7
31 05:55 NE 3 10.00 Fair CLR 75.7 72.1 89% 76 30.06 1018.0
31 04:55 NE 5 10.00 Fair CLR 76.1 72.1 88% 76 30.05 1017.6
31 03:55 NE 5 10.00 Fair CLR 76.8 72.3 86% 78 30.04 1017.3
31 02:55 N 3 10.00 Fair CLR 75.7 72.9 91% 75 30.03 1016.9
31 01:55 Calm 10.00 Fair CLR 76.6 72.5 87% 78 30.04 1017.3
31 00:55 Calm 10.00 Fair CLR 77.2 72.7 90.5 77.2 86% 79 30.04 1017.3
30 23:55 E 7 10.00 Fair CLR 82 71.2 70% 86 30.03 1016.9
30 22:55 E 8 10.00 Fair CLR 83.8 71.2 66% 89 30.04 1017.3
30 21:55 SE 10 10.00 Fair CLR 85.6 71.1 62% 91 30.04 1017.3
30 20:55 E 6 10.00 Fair CLR 86.2 70.2 59% 91 30.03 1017.0
30 19:55 E 6 10.00 Fair CLR 87.8 69.6 55% 93 30.01 1016.3
30 18:55 E 6 10.00 Fair CLR 90.5 69.3 97.3 90.5 50% 95 30 1015.9
30 17:55 E 7 10.00 Overcast SCT055 SCT080 OVC100 92.5 68 45% 97 29.99 1015.6
30 16:55 E 9 10.00 Fair CLR 95.2 66.9 40% 99 29.99 1015.6
30 15:55 E 8 10.00 Mostly Cloudy BKN055 95.7 66.7 39% 100 30 1015.9
30 14:55 SE 9 10.00 Mostly Cloudy FEW050 BKN090 95.2 67.6 41% 100 30.02 1016.6
30 13:55 E 7 10.00 Partly Cloudy SCT050 96.3 68.7 41% 102 30.04 1017.3
30 12:55 E 5 10.00 Mostly Cloudy SCT046 BKN060 92.5 69.3 93.6 75.6 47% 98 30.06 1018.0
30 11:55 SE 5 10.00 Partly Cloudy SCT041 91 69.1 49% 96 30.09 1019.0
30 10:55 NE 7 10.00 Mostly Cloudy BKN033 90 70.5 53% 96 30.1 1019.3
30 09:55 NE 7 10.00 Fair CLR 87.4 72.3 61% 94 30.1 1019.3
30 08:55 Calm 10.00 Fair CLR 82.4 73.6 75% 88 30.11 1019.7
30 07:55 NE 6 10.00 Fair CLR 79.3 73.6 83% 83 30.11 1019.7
30 06:55 Calm 10.00 Partly Cloudy SCT030 75.4 72.9 78.1 74.8 92% 75 30.09 1019.0
30 05:55 NE 5 10.00 Fair CLR 75.4 72.9 92% 75 30.07 1018.3
30 04:55 NE 3 10.00 Fair CLR 75.4 72.9 92% 75 30.05 1017.6
30 03:55 N 3 10.00 Fair CLR 75.2 72.7 92% 74 30.04 1017.3
30 02:55 Calm 10.00 Fair CLR 77.5 72.3 84% 79 30.04 1017.3
30 01:55 SE 3 10.00 Fair CLR 77.5 71.6 82% 79 30.05 1017.6
30 00:55 SE 3 10.00 A Few Clouds FEW037 77.2 71.2 89.6 77.2 82% 79 30.06 1018.0
29 23:55 SE 3 10.00 Fair CLR 79 71.4 78% 82 30.08 1018.7
29 22:55 SE 6 10.00 Fair CLR 81.9 70.7 69% 86 30.08 1018.6
29 21:55 SE 7 10.00 Fair CLR 83.5 70.3 65% 88 30.06 1018.0
Date Time (cdt) Wind (mph) Vis. (mi.) Weather Sky Cond. Air Dwpt Max. Min. Relative Humidity Wind Chill (°F) Heat Index (°F) altimeter (in) sea level (mb) 1 hr 3 hr 6 hr
6 hour
Temperature (ºF) Pressure Precipitation (in)